createdAt,value
2017-08-26T00:02:06.816Z,15.00
2017-08-26T00:04:34.317Z,14.10
2017-08-26T00:07:01.813Z,14.60
2017-08-26T00:09:29.346Z,14.60
2017-08-26T00:11:56.853Z,13.83
2017-08-26T00:14:24.364Z,16.00
2017-08-26T00:16:51.885Z,17.90
2017-08-26T00:19:19.400Z,16.00
2017-08-26T00:21:46.976Z,15.30
2017-08-26T00:24:14.483Z,16.03
2017-08-26T00:26:41.985Z,17.40
2017-08-26T00:29:09.504Z,15.80
2017-08-26T00:31:37.007Z,14.70
2017-08-26T00:34:04.550Z,16.53
2017-08-26T00:36:32.039Z,16.17
2017-08-26T00:38:59.538Z,16.17
2017-08-26T00:41:27.059Z,14.80
2017-08-26T00:43:54.598Z,15.93
2017-08-26T00:46:22.168Z,16.70
2017-08-26T00:48:49.713Z,14.40
2017-08-26T00:51:17.272Z,17.07
2017-08-26T00:53:44.789Z,16.73
2017-08-26T00:56:12.280Z,15.80
2017-08-26T00:58:39.812Z,15.67
2017-08-26T01:01:07.331Z,16.90
2017-08-26T01:03:34.825Z,15.87
2017-08-26T01:06:02.351Z,16.17
2017-08-26T01:08:29.883Z,16.17
2017-08-26T01:10:57.412Z,14.90
2017-08-26T01:13:24.979Z,15.93
2017-08-26T01:15:52.496Z,15.90
2017-08-26T01:18:20.030Z,16.93
2017-08-26T01:20:47.567Z,16.97
2017-08-26T01:23:15.068Z,14.40
2017-08-26T01:25:42.674Z,15.90
2017-08-26T01:28:10.184Z,17.30
2017-08-26T01:30:37.720Z,15.30
2017-08-26T01:33:05.346Z,14.73
2017-08-26T01:35:32.837Z,13.77
2017-08-26T01:38:00.468Z,15.93
2017-08-26T01:40:27.979Z,14.40
2017-08-26T01:42:55.488Z,13.87
2017-08-26T01:45:22.999Z,12.90
2017-08-26T01:47:50.596Z,15.37
2017-08-26T01:50:18.129Z,14.40
2017-08-26T01:52:45.631Z,14.73
2017-08-26T01:55:13.160Z,13.30
2017-08-26T01:57:40.741Z,13.57
2017-08-26T02:00:08.286Z,12.27
2017-08-26T02:02:35.808Z,13.23
2017-08-26T02:05:03.306Z,13.23
2017-08-26T02:07:30.812Z,13.20
2017-08-26T02:09:58.422Z,13.20
2017-08-26T02:12:26.029Z,12.43
2017-08-26T02:14:53.633Z,13.00
2017-08-26T02:17:21.135Z,13.70
2017-08-26T02:19:48.639Z,12.93
2017-08-26T02:22:16.169Z,14.13
2017-08-26T02:24:43.668Z,12.77
2017-08-26T02:27:11.197Z,13.93
2017-08-26T02:29:38.697Z,13.70
2017-08-26T02:32:06.233Z,12.07
2017-08-26T02:34:33.796Z,12.30
2017-08-26T02:37:01.290Z,13.23
2017-08-26T02:39:28.812Z,15.17
2017-08-26T02:41:56.319Z,12.67
2017-08-26T02:44:23.829Z,13.30
2017-08-26T02:46:51.392Z,12.43
2017-08-26T02:49:18.896Z,13.10
2017-08-26T02:51:46.500Z,12.30
2017-08-26T02:54:13.994Z,12.47
2017-08-26T02:56:41.485Z,12.30
2017-08-26T02:59:09.077Z,13.53
2017-08-26T03:01:36.585Z,12.57
2017-08-26T03:04:04.193Z,13.10
2017-08-26T03:06:31.690Z,12.10
2017-08-26T03:08:59.189Z,12.53
2017-08-26T03:11:26.721Z,13.47
2017-08-26T03:13:54.324Z,12.33
2017-08-26T03:16:21.820Z,14.30
2017-08-26T03:18:49.438Z,13.50
2017-08-26T03:21:16.972Z,13.70
2017-08-26T03:23:44.558Z,12.07
2017-08-26T03:26:12.124Z,12.70
2017-08-26T03:28:39.640Z,14.67
2017-08-26T03:31:07.243Z,13.10
2017-08-26T03:33:34.796Z,12.20
2017-08-26T03:36:02.293Z,12.37
2017-08-26T03:38:29.909Z,12.50
2017-08-26T03:40:57.468Z,12.33
2017-08-26T03:43:24.986Z,13.40
2017-08-26T03:45:52.506Z,13.80
2017-08-26T03:48:20.037Z,12.83
2017-08-26T03:50:48.313Z,12.37
2017-08-26T03:53:15.872Z,12.53
2017-08-26T03:55:43.393Z,13.30
2017-08-26T03:58:10.932Z,12.00
2017-08-26T04:00:38.439Z,10.87
2017-08-26T04:03:06.028Z,13.33
2017-08-26T04:05:33.564Z,13.17
2017-08-26T04:08:01.072Z,12.00
2017-08-26T04:10:28.688Z,12.23
2017-08-26T04:12:56.184Z,12.77
2017-08-26T04:15:23.688Z,12.10
2017-08-26T04:17:51.245Z,12.43
2017-08-26T04:20:18.753Z,12.57
2017-08-26T04:22:46.248Z,10.83
2017-08-26T04:25:13.853Z,12.07
2017-08-26T04:27:41.344Z,11.80
2017-08-26T04:30:08.880Z,11.07
2017-08-26T04:32:36.391Z,13.20
2017-08-26T04:35:03.889Z,13.90
2017-08-26T04:37:31.412Z,12.03
2017-08-26T04:39:58.911Z,11.17
2017-08-26T04:42:26.437Z,11.93
2017-08-26T04:44:53.959Z,11.80
2017-08-26T04:47:21.540Z,13.37
2017-08-26T04:49:49.073Z,11.63
2017-08-26T04:52:16.569Z,13.03
2017-08-26T04:54:44.063Z,12.43
2017-08-26T04:57:11.594Z,12.90
2017-08-26T04:59:39.089Z,11.87
2017-08-26T05:02:06.692Z,12.27
2017-08-26T05:04:34.185Z,10.93
2017-08-26T05:07:01.676Z,10.97
2017-08-26T05:09:29.260Z,13.27
2017-08-26T05:11:56.830Z,14.23
2017-08-26T05:14:24.341Z,12.93
2017-08-26T05:16:51.935Z,12.50
2017-08-26T05:19:19.448Z,14.37
2017-08-26T05:21:46.940Z,13.77
2017-08-26T05:24:14.457Z,14.00
2017-08-26T05:26:41.968Z,14.33
2017-08-26T05:29:09.460Z,13.07
2017-08-26T05:31:36.988Z,13.10
2017-08-26T05:34:04.493Z,14.50
2017-08-26T05:36:32.032Z,13.50
2017-08-26T05:38:59.524Z,14.63
2017-08-26T05:41:27.022Z,11.90
2017-08-26T05:43:54.537Z,13.80
2017-08-26T05:46:22.073Z,12.43
2017-08-26T05:48:49.569Z,12.03
2017-08-26T05:51:17.114Z,13.03
2017-08-26T05:53:44.613Z,11.47
2017-08-26T05:56:12.116Z,12.17
2017-08-26T05:58:39.632Z,11.07
2017-08-26T06:01:07.133Z,11.30
2017-08-26T06:03:34.659Z,10.80
2017-08-26T06:06:02.148Z,11.13
2017-08-26T06:08:29.696Z,12.63
2017-08-26T06:10:57.194Z,11.00
2017-08-26T06:13:24.684Z,11.10
2017-08-26T06:15:52.208Z,10.40
2017-08-26T06:18:19.700Z,10.13
2017-08-26T06:20:47.196Z,11.43
2017-08-26T06:23:14.786Z,11.10
2017-08-26T06:25:42.311Z,10.83
2017-08-26T06:28:09.827Z,11.27
2017-08-26T06:30:37.359Z,10.60
2017-08-26T06:33:04.924Z,10.20
2017-08-26T06:35:32.416Z,10.70
2017-08-26T06:37:59.915Z,9.70
2017-08-26T06:40:27.493Z,9.50
2017-08-26T06:42:54.976Z,9.03
2017-08-26T06:45:22.548Z,10.30
2017-08-26T06:47:50.071Z,9.50
2017-08-26T06:50:17.560Z,9.20
2017-08-26T06:52:45.069Z,8.77
2017-08-26T06:55:12.564Z,10.13
2017-08-26T06:57:40.074Z,10.00
2017-08-26T07:00:07.596Z,8.93
2017-08-26T07:02:35.098Z,8.30
2017-08-26T07:05:02.617Z,7.83
2017-08-26T07:07:30.124Z,8.80
2017-08-26T07:09:57.661Z,9.10
2017-08-26T07:12:25.228Z,9.30
2017-08-26T07:14:52.768Z,9.43
2017-08-26T07:17:20.358Z,7.50
2017-08-26T07:19:47.879Z,9.30
2017-08-26T07:22:15.397Z,8.83
2017-08-26T07:24:42.887Z,8.40
2017-08-26T07:27:10.399Z,8.77
2017-08-26T07:29:37.925Z,8.40
2017-08-26T07:32:05.433Z,8.50
2017-08-26T07:34:32.960Z,8.30
2017-08-26T07:37:00.468Z,9.73
2017-08-26T07:39:27.980Z,8.57
2017-08-26T07:41:55.509Z,7.70
2017-08-26T07:44:23.013Z,7.33
2017-08-26T07:46:50.539Z,7.20
2017-08-26T07:49:18.032Z,8.80
2017-08-26T07:51:45.565Z,8.47
2017-08-26T07:54:13.100Z,7.60
2017-08-26T07:56:40.633Z,8.03
2017-08-26T07:59:08.169Z,8.10
2017-08-26T08:01:35.671Z,8.07
2017-08-26T08:04:03.245Z,6.70
2017-08-26T08:06:30.807Z,7.43
2017-08-26T08:08:58.297Z,7.40
2017-08-26T08:11:25.820Z,7.53
2017-08-26T08:13:53.330Z,7.07
2017-08-26T08:16:20.944Z,7.17
2017-08-26T08:18:48.465Z,7.10
2017-08-26T08:21:15.971Z,7.83
2017-08-26T08:23:43.496Z,7.50
2017-08-26T08:26:11.098Z,7.97
2017-08-26T08:28:38.595Z,6.53
2017-08-26T08:31:06.119Z,7.80
2017-08-26T08:33:33.632Z,7.53
2017-08-26T08:36:01.149Z,6.60
2017-08-26T08:38:28.628Z,6.90
2017-08-26T08:40:56.156Z,7.63
2017-08-26T08:43:23.677Z,7.57
2017-08-26T08:45:51.249Z,6.93
2017-08-26T08:48:18.765Z,7.37
2017-08-26T08:50:46.372Z,6.03
2017-08-26T08:53:14.014Z,6.07
2017-08-26T08:55:41.512Z,6.30
2017-08-26T08:58:09.024Z,5.97
2017-08-26T09:00:36.541Z,6.13
2017-08-26T09:03:04.137Z,5.70
2017-08-26T09:05:31.672Z,5.43
2017-08-26T09:07:59.156Z,5.50
2017-08-26T09:10:26.672Z,5.87
2017-08-26T09:12:54.279Z,3.87
2017-08-26T09:15:21.809Z,5.97
2017-08-26T09:17:49.308Z,4.27
2017-08-26T09:20:16.812Z,4.57
2017-08-26T09:22:44.329Z,3.87
2017-08-26T09:25:11.825Z,3.90
2017-08-26T09:27:39.448Z,4.50
2017-08-26T09:30:06.966Z,4.10
2017-08-26T09:32:34.463Z,4.77
2017-08-26T09:35:01.991Z,4.27
2017-08-26T09:37:29.549Z,4.50
2017-08-26T09:39:57.064Z,3.93
2017-08-26T09:42:24.572Z,4.13
2017-08-26T09:44:52.128Z,3.77
2017-08-26T09:47:19.652Z,4.87
2017-08-26T09:49:47.206Z,4.23
2017-08-26T09:52:14.792Z,4.33
2017-08-26T09:54:42.297Z,4.07
2017-08-26T09:57:09.818Z,4.20
2017-08-26T09:59:37.344Z,4.60
2017-08-26T10:02:04.931Z,4.13
2017-08-26T10:04:32.477Z,4.90
2017-08-26T10:06:59.993Z,3.93
2017-08-26T10:09:27.494Z,4.00
2017-08-26T10:11:55.025Z,4.13
2017-08-26T10:14:22.616Z,3.70
2017-08-26T10:16:50.103Z,4.47
2017-08-26T10:19:17.605Z,4.93
2017-08-26T10:21:45.133Z,4.70
2017-08-26T10:24:12.620Z,4.23
2017-08-26T10:26:40.144Z,4.70
2017-08-26T10:29:07.651Z,4.60
2017-08-26T10:31:35.160Z,4.40
2017-08-26T10:34:02.703Z,4.17
2017-08-26T10:36:30.200Z,4.60
2017-08-26T10:38:57.698Z,4.40
2017-08-26T10:41:25.267Z,4.37
2017-08-26T10:43:52.780Z,5.00
2017-08-26T10:46:21.208Z,4.53
2017-08-26T10:48:48.724Z,4.93
2017-08-26T10:51:16.224Z,4.70
2017-08-26T10:53:43.763Z,4.50
2017-08-26T10:56:11.332Z,5.10
2017-08-26T10:58:38.834Z,4.70
2017-08-26T11:01:06.354Z,5.03
2017-08-26T11:03:33.865Z,4.53
2017-08-26T11:06:01.369Z,4.60
2017-08-26T11:08:28.887Z,4.80
2017-08-26T11:10:56.368Z,4.50
2017-08-26T11:13:23.919Z,5.73
2017-08-26T11:15:51.479Z,5.37
2017-08-26T11:18:19.029Z,5.47
2017-08-26T11:20:46.540Z,5.73
2017-08-26T11:23:14.052Z,5.30
2017-08-26T11:25:41.576Z,5.03
2017-08-26T11:28:09.080Z,4.70
2017-08-26T11:30:36.569Z,4.80
2017-08-26T11:33:04.182Z,4.83
2017-08-26T11:35:31.692Z,4.83
2017-08-26T11:37:59.197Z,4.63
2017-08-26T11:40:26.756Z,5.50
2017-08-26T11:42:54.240Z,4.80
2017-08-26T11:45:21.776Z,5.47
2017-08-26T11:47:49.318Z,5.37
2017-08-26T11:50:16.848Z,5.20
2017-08-26T11:52:44.440Z,5.47
2017-08-26T11:55:12.018Z,4.50
2017-08-26T11:57:39.536Z,4.80
2017-08-26T12:00:07.050Z,4.83
2017-08-26T12:02:34.565Z,5.03
2017-08-26T12:05:02.134Z,5.90
2017-08-26T12:07:29.692Z,4.60
2017-08-26T12:09:57.210Z,5.30
2017-08-26T12:12:24.704Z,5.77
2017-08-26T12:14:52.229Z,5.10
2017-08-26T12:17:19.822Z,5.00
2017-08-26T12:19:47.316Z,5.03
2017-08-26T12:22:14.823Z,5.30
2017-08-26T12:24:43.101Z,5.10
2017-08-26T12:27:10.621Z,4.90
2017-08-26T12:29:38.112Z,4.73
2017-08-26T12:32:05.597Z,5.50
2017-08-26T12:34:33.151Z,5.23
2017-08-26T12:37:00.697Z,5.03
2017-08-26T12:39:28.218Z,5.27
2017-08-26T12:41:55.749Z,5.07
2017-08-26T12:44:23.242Z,4.70
2017-08-26T12:46:50.866Z,5.77
2017-08-26T12:49:18.378Z,5.20
2017-08-26T12:51:45.884Z,5.07
2017-08-26T12:54:13.505Z,4.87
2017-08-26T12:56:41.019Z,6.07
2017-08-26T12:59:08.532Z,5.50
2017-08-26T13:01:36.098Z,4.90
2017-08-26T13:04:03.633Z,5.47
2017-08-26T13:06:31.165Z,5.20
2017-08-26T13:08:58.765Z,5.50
2017-08-26T13:11:26.310Z,5.60
2017-08-26T13:13:53.917Z,6.27
2017-08-26T13:16:21.449Z,6.17
2017-08-26T13:18:48.984Z,5.63
2017-08-26T13:21:16.482Z,5.53
2017-08-26T13:23:44.007Z,5.73
2017-08-26T13:26:11.513Z,5.33
2017-08-26T13:28:39.031Z,5.73
2017-08-26T13:31:06.539Z,5.70
2017-08-26T13:33:34.167Z,5.43
2017-08-26T13:36:01.680Z,5.33
2017-08-26T13:38:29.245Z,5.30
2017-08-26T13:40:56.831Z,5.93
2017-08-26T13:43:24.333Z,5.97
2017-08-26T13:45:51.929Z,5.60
2017-08-26T13:48:19.492Z,5.37
2017-08-26T13:50:47.028Z,5.67
2017-08-26T13:53:15.296Z,6.50
2017-08-26T13:55:42.883Z,5.67
2017-08-26T13:58:10.371Z,5.80
2017-08-26T14:00:37.901Z,5.43
2017-08-26T14:03:05.449Z,5.77
2017-08-26T14:05:33.029Z,5.00
2017-08-26T14:08:00.579Z,6.00
2017-08-26T14:10:28.129Z,5.40
2017-08-26T14:12:55.694Z,5.70
2017-08-26T14:15:23.185Z,6.03
2017-08-26T14:17:50.677Z,5.83
2017-08-26T14:20:18.213Z,5.90
2017-08-26T14:22:45.704Z,6.50
2017-08-26T14:25:13.250Z,6.17
2017-08-26T14:27:40.745Z,5.17
2017-08-26T14:30:08.301Z,6.50
2017-08-26T14:32:35.985Z,5.63
2017-08-26T14:35:03.492Z,6.80
2017-08-26T14:37:31.082Z,5.97
2017-08-26T14:39:58.621Z,5.70
2017-08-26T14:42:26.124Z,5.73
2017-08-26T14:44:53.636Z,6.30
2017-08-26T14:47:21.125Z,5.93
2017-08-26T14:49:48.645Z,6.00
2017-08-26T14:52:16.221Z,5.67
2017-08-26T14:54:43.768Z,5.80
2017-08-26T14:57:11.308Z,5.40
2017-08-26T14:59:38.804Z,5.60
2017-08-26T15:02:06.439Z,6.67
2017-08-26T15:04:33.952Z,5.27
2017-08-26T15:07:01.497Z,5.70
2017-08-26T15:09:28.987Z,5.30
2017-08-26T15:11:56.500Z,5.80
2017-08-26T15:14:24.017Z,5.40
2017-08-26T15:16:51.612Z,5.60
2017-08-26T15:19:19.132Z,6.47
2017-08-26T15:21:46.634Z,5.93
2017-08-26T15:24:14.133Z,6.00
2017-08-26T15:26:41.658Z,6.10
2017-08-26T15:29:09.158Z,5.40
2017-08-26T15:31:36.676Z,6.03
2017-08-26T15:34:04.167Z,5.53
2017-08-26T15:36:31.661Z,5.57
2017-08-26T15:38:59.181Z,5.60
2017-08-26T15:41:26.684Z,5.47
2017-08-26T15:43:54.196Z,7.17
2017-08-26T15:46:21.704Z,5.93
2017-08-26T15:48:49.233Z,5.83
2017-08-26T15:51:16.761Z,5.37
2017-08-26T15:53:44.257Z,6.50
2017-08-26T15:56:11.782Z,6.80
2017-08-26T15:58:39.271Z,6.40
2017-08-26T16:01:06.787Z,6.07
2017-08-26T16:03:34.273Z,6.53
2017-08-26T16:06:01.832Z,7.13
2017-08-26T16:08:29.354Z,6.47
2017-08-26T16:10:56.852Z,6.10
2017-08-26T16:13:24.374Z,7.10
2017-08-26T16:15:52.000Z,6.17
2017-08-26T16:18:19.623Z,6.70
2017-08-26T16:20:47.112Z,6.60
2017-08-26T16:23:14.652Z,5.93
2017-08-26T16:25:42.184Z,6.00
2017-08-26T16:28:09.697Z,7.23
2017-08-26T16:30:37.198Z,5.53
2017-08-26T16:33:04.732Z,6.93
2017-08-26T16:35:32.260Z,6.10
2017-08-26T16:37:59.759Z,6.30
2017-08-26T16:40:27.356Z,6.47
2017-08-26T16:42:54.912Z,6.17
2017-08-26T16:45:22.407Z,6.00
2017-08-26T16:47:49.970Z,6.30
2017-08-26T16:50:17.461Z,6.33
2017-08-26T16:52:45.038Z,5.90
2017-08-26T16:55:12.540Z,6.57
2017-08-26T16:57:40.039Z,6.20
2017-08-26T17:00:07.609Z,6.20
2017-08-26T17:02:35.132Z,5.90
2017-08-26T17:05:02.648Z,7.00
2017-08-26T17:07:30.152Z,6.77
2017-08-26T17:09:57.672Z,6.30
2017-08-26T17:12:25.187Z,6.27
2017-08-26T17:14:52.680Z,6.70
2017-08-26T17:17:20.200Z,6.00
2017-08-26T17:19:47.770Z,6.43
2017-08-26T17:22:15.354Z,6.93
2017-08-26T17:24:42.882Z,6.30
2017-08-26T17:27:10.413Z,5.90
2017-08-26T17:29:37.952Z,7.63
2017-08-26T17:32:05.463Z,7.07
2017-08-26T17:34:32.964Z,6.77
2017-08-26T17:37:00.561Z,7.00
2017-08-26T17:39:28.136Z,6.70
2017-08-26T17:41:55.622Z,7.53
2017-08-26T17:44:23.149Z,7.50
2017-08-26T17:46:50.647Z,7.10
2017-08-26T17:49:18.176Z,7.80
2017-08-26T17:51:45.696Z,7.60
2017-08-26T17:54:13.226Z,6.60
2017-08-26T17:56:40.761Z,6.90
2017-08-26T17:59:08.258Z,6.70
2017-08-26T18:01:35.769Z,7.93
2017-08-26T18:04:03.297Z,7.37
2017-08-26T18:06:30.841Z,7.37
2017-08-26T18:08:58.436Z,7.03
2017-08-26T18:11:25.986Z,7.20
2017-08-26T18:13:53.546Z,7.47
2017-08-26T18:16:21.068Z,7.23
2017-08-26T18:18:48.576Z,7.90
2017-08-26T18:21:16.087Z,7.33
2017-08-26T18:23:43.680Z,9.60
2017-08-26T18:26:11.218Z,7.03
2017-08-26T18:28:38.795Z,8.30
2017-08-26T18:31:06.305Z,8.47
2017-08-26T18:33:33.842Z,8.20
2017-08-26T18:36:01.389Z,8.23
2017-08-26T18:38:28.910Z,8.73
2017-08-26T18:40:56.489Z,10.43
2017-08-26T18:43:24.042Z,9.03
2017-08-26T18:45:51.585Z,9.20
2017-08-26T18:48:19.178Z,9.07
2017-08-26T18:50:46.724Z,9.67
2017-08-26T18:53:14.236Z,10.20
2017-08-26T18:55:41.850Z,9.40
2017-08-26T18:58:09.377Z,9.93
2017-08-26T19:00:36.896Z,10.13
2017-08-26T19:03:04.509Z,9.80
2017-08-26T19:05:32.020Z,9.30
2017-08-26T19:07:59.545Z,9.40
2017-08-26T19:10:27.058Z,9.90
2017-08-26T19:12:54.561Z,10.30
2017-08-26T19:15:22.102Z,10.33
2017-08-26T19:17:49.676Z,9.50
2017-08-26T19:20:17.184Z,10.23
2017-08-26T19:22:44.708Z,10.57
2017-08-26T19:25:12.224Z,10.70
2017-08-26T19:27:39.801Z,9.33
2017-08-26T19:30:07.353Z,9.47
2017-08-26T19:32:34.861Z,10.83
2017-08-26T19:35:02.470Z,13.20
2017-08-26T19:37:30.033Z,14.23
2017-08-26T19:39:57.566Z,11.47
2017-08-26T19:42:25.118Z,11.00
2017-08-26T19:44:52.652Z,11.00
2017-08-26T19:47:20.155Z,11.00
2017-08-26T19:49:47.681Z,10.37
2017-08-26T19:52:15.276Z,9.83
2017-08-26T19:54:42.787Z,9.53
2017-08-26T19:57:10.291Z,11.43
2017-08-26T19:59:37.809Z,10.30
2017-08-26T20:02:05.323Z,10.30
2017-08-26T20:04:32.853Z,10.27
2017-08-26T20:07:00.356Z,10.80
2017-08-26T20:09:27.867Z,10.67
2017-08-26T20:11:55.389Z,10.03
2017-08-26T20:14:22.885Z,11.40
2017-08-26T20:16:50.442Z,10.13
2017-08-26T20:19:17.952Z,11.30
2017-08-26T20:21:45.458Z,10.80
2017-08-26T20:24:13.015Z,11.20
2017-08-26T20:26:40.530Z,11.53
2017-08-26T20:29:08.068Z,11.70
2017-08-26T20:31:35.577Z,10.57
2017-08-26T20:34:03.093Z,11.53
2017-08-26T20:36:30.622Z,11.07
2017-08-26T20:38:58.121Z,11.73
2017-08-26T20:41:25.665Z,11.83
2017-08-26T20:43:53.203Z,13.20
2017-08-26T20:46:20.705Z,11.87
2017-08-26T20:48:48.244Z,11.50
2017-08-26T20:51:15.747Z,12.10
2017-08-26T20:53:43.317Z,12.30
2017-08-26T20:56:10.858Z,12.50
2017-08-26T20:58:38.377Z,11.43
2017-08-26T21:01:05.895Z,12.10
2017-08-26T21:03:33.390Z,12.37
2017-08-26T21:06:00.933Z,13.80
2017-08-26T21:08:28.447Z,12.63
2017-08-26T21:10:55.954Z,13.40
2017-08-26T21:13:23.504Z,13.60
2017-08-26T21:15:51.041Z,13.23
2017-08-26T21:18:18.596Z,12.60
2017-08-26T21:20:46.263Z,12.80
2017-08-26T21:23:13.752Z,14.53
2017-08-26T21:25:41.276Z,13.90
2017-08-26T21:28:08.790Z,15.57
2017-08-26T21:30:36.358Z,14.30
2017-08-26T21:33:03.931Z,15.20
2017-08-26T21:35:31.445Z,16.30
2017-08-26T21:37:58.966Z,16.20
2017-08-26T21:40:26.481Z,16.33
2017-08-26T21:42:54.006Z,15.73
2017-08-26T21:45:21.628Z,15.13
2017-08-26T21:47:49.172Z,15.93
2017-08-26T21:50:16.760Z,14.13
2017-08-26T21:52:44.264Z,14.87
2017-08-26T21:55:11.799Z,14.67
2017-08-26T21:57:39.300Z,15.40
2017-08-26T22:00:06.870Z,16.23
2017-08-26T22:02:34.397Z,13.57
2017-08-26T22:05:02.004Z,14.07
2017-08-26T22:07:29.528Z,12.93
2017-08-26T22:09:57.029Z,15.03
2017-08-26T22:12:24.565Z,15.50
2017-08-26T22:14:52.068Z,15.17
2017-08-26T22:17:19.576Z,14.03
2017-08-26T22:19:47.161Z,15.50
2017-08-26T22:22:14.698Z,14.23
2017-08-26T22:24:42.216Z,14.87
2017-08-26T22:27:09.736Z,13.37
2017-08-26T22:29:37.236Z,13.40
2017-08-26T22:32:04.837Z,15.63
2017-08-26T22:34:32.368Z,15.10
2017-08-26T22:36:59.952Z,14.00
2017-08-26T22:39:27.491Z,14.70
2017-08-26T22:41:55.745Z,15.60
2017-08-26T22:44:23.260Z,15.27
2017-08-26T22:46:50.904Z,14.73
2017-08-26T22:49:18.407Z,15.00
2017-08-26T22:51:45.942Z,13.97
2017-08-26T22:54:13.448Z,14.90
2017-08-26T22:56:40.953Z,14.87
2017-08-26T22:59:08.494Z,14.43
2017-08-26T23:01:36.035Z,14.80
2017-08-26T23:04:03.552Z,15.53
2017-08-26T23:06:31.050Z,14.00
2017-08-26T23:08:58.562Z,15.83
2017-08-26T23:11:26.085Z,13.27
2017-08-26T23:13:53.589Z,15.50
2017-08-26T23:16:21.129Z,15.47
2017-08-26T23:18:48.641Z,15.80
2017-08-26T23:21:16.196Z,14.87
2017-08-26T23:23:43.769Z,14.30
2017-08-26T23:26:11.330Z,15.03
2017-08-26T23:28:38.880Z,15.97
2017-08-26T23:31:06.448Z,16.27
2017-08-26T23:33:33.956Z,14.40
2017-08-26T23:36:01.460Z,15.07
2017-08-26T23:38:29.004Z,15.77
2017-08-26T23:40:56.501Z,15.87
2017-08-26T23:43:24.032Z,15.50
2017-08-26T23:45:51.532Z,15.30
2017-08-26T23:48:19.064Z,16.07
2017-08-26T23:50:46.556Z,16.90
2017-08-26T23:53:14.085Z,16.97
2017-08-26T23:55:41.592Z,17.20
2017-08-26T23:58:09.095Z,16.37
